createdAt,value
2022-09-10T00:02:11.824Z,100.00
2022-09-10T00:04:38.849Z,100.00
2022-09-10T00:07:05.599Z,100.00
2022-09-10T00:09:32.627Z,100.00
2022-09-10T00:11:59.379Z,100.00
2022-09-10T00:14:26.150Z,100.00
2022-09-10T00:16:53.269Z,100.00
2022-09-10T00:19:21.780Z,100.00
2022-09-10T00:21:50.708Z,100.00
2022-09-10T00:24:17.795Z,100.00
2022-09-10T00:26:45.728Z,100.00
2022-09-10T00:29:15.987Z,100.00
2022-09-10T00:31:44.747Z,100.00
2022-09-10T00:34:12.860Z,100.00
2022-09-10T00:36:41.950Z,100.00
2022-09-10T00:39:13.140Z,100.00
2022-09-10T00:41:42.560Z,100.00
2022-09-10T00:44:38.562Z,100.00
2022-09-10T00:47:34.361Z,100.00
2022-09-10T00:50:15.749Z,100.00
2022-09-10T00:52:43.973Z,100.00
2022-09-10T00:55:12.619Z,100.00
2022-09-10T00:57:41.847Z,100.00
2022-09-10T01:00:12.444Z,100.00
2022-09-10T01:02:41.562Z,100.00
2022-09-10T01:05:09.735Z,100.00
2022-09-10T01:07:37.335Z,100.00
2022-09-10T01:10:13.546Z,100.00
2022-09-10T01:13:01.422Z,100.00
2022-09-10T01:15:50.407Z,100.00
2022-09-10T01:18:31.107Z,100.00
2022-09-10T01:21:14.871Z,100.00
2022-09-10T01:24:00.297Z,100.00
2022-09-10T01:26:45.519Z,100.00
2022-09-10T01:29:35.851Z,100.00
2022-09-10T01:32:09.008Z,100.00
2022-09-10T01:34:55.910Z,100.00
2022-09-10T01:37:28.942Z,100.00
2022-09-10T01:39:58.872Z,100.00
2022-09-10T01:42:29.039Z,100.00
2022-09-10T01:44:58.105Z,100.00
2022-09-10T01:47:55.832Z,100.00
2022-09-10T01:50:33.105Z,100.00
2022-09-10T01:53:19.208Z,100.00
2022-09-10T01:56:03.847Z,100.00
2022-09-10T01:58:42.146Z,100.00
2022-09-10T02:01:40.420Z,100.00
2022-09-10T02:04:14.553Z,100.00
2022-09-10T02:06:47.643Z,100.00
2022-09-10T02:09:16.688Z,100.00
2022-09-10T02:11:53.633Z,100.00
2022-09-10T02:14:39.766Z,100.00
2022-09-10T02:17:34.328Z,100.00
2022-09-10T02:20:02.694Z,100.00
2022-09-10T02:22:32.441Z,100.00
2022-09-10T02:24:59.732Z,100.00
2022-09-10T02:27:30.048Z,100.00
2022-09-10T02:29:57.768Z,100.00
2022-09-10T02:32:25.425Z,100.00
2022-09-10T02:34:52.728Z,100.00
2022-09-10T02:37:20.245Z,100.00
2022-09-10T02:39:47.236Z,100.00
2022-09-10T02:42:18.069Z,100.00
2022-09-10T02:44:47.932Z,100.00
2022-09-10T02:47:15.218Z,100.00
2022-09-10T02:49:42.186Z,100.00
2022-09-10T02:52:09.516Z,100.00
2022-09-10T02:54:37.896Z,99.96
2022-09-10T02:57:05.207Z,99.88
2022-09-10T02:59:32.800Z,99.88
2022-09-10T03:02:00.033Z,99.58
2022-09-10T03:04:27.064Z,99.58
2022-09-10T03:06:55.424Z,99.72
2022-09-10T03:09:23.092Z,99.83
2022-09-10T03:11:51.260Z,99.36
2022-09-10T03:14:22.331Z,99.38
2022-09-10T03:16:49.715Z,99.65
2022-09-10T03:19:16.774Z,99.85
2022-09-10T03:21:43.704Z,99.79
2022-09-10T03:24:13.429Z,99.78
2022-09-10T03:26:44.361Z,99.64
2022-09-10T03:29:12.518Z,99.59
2022-09-10T03:31:40.787Z,99.09
2022-09-10T03:34:08.854Z,99.11
2022-09-10T03:36:35.982Z,99.48
2022-09-10T03:39:05.392Z,99.71
2022-09-10T03:41:32.675Z,100.00
2022-09-10T03:44:00.935Z,100.00
2022-09-10T03:46:28.407Z,100.00
2022-09-10T03:48:58.661Z,100.00
2022-09-10T03:51:27.527Z,100.00
2022-09-10T03:53:56.063Z,100.00
2022-09-10T03:56:23.101Z,100.00
2022-09-10T03:58:49.903Z,100.00
2022-09-10T04:01:17.926Z,100.00
2022-09-10T04:03:47.493Z,100.00
2022-09-10T04:06:16.319Z,100.00
2022-09-10T04:08:43.694Z,100.00
2022-09-10T04:11:14.142Z,99.63
2022-09-10T04:13:41.785Z,99.57
2022-09-10T04:16:11.999Z,99.25
2022-09-10T04:18:40.306Z,99.46
2022-09-10T04:21:07.255Z,99.42
2022-09-10T04:23:35.308Z,99.34
2022-09-10T04:26:17.537Z,99.22
2022-09-10T04:28:47.428Z,99.50
2022-09-10T04:31:16.141Z,99.36
2022-09-10T04:33:43.100Z,99.28
2022-09-10T04:36:10.268Z,99.03
2022-09-10T04:38:41.650Z,98.95
2022-09-10T04:41:09.661Z,99.16
2022-09-10T04:43:37.891Z,99.19
2022-09-10T04:46:06.215Z,99.10
2022-09-10T04:48:35.094Z,98.85
2022-09-10T04:51:18.279Z,99.22
2022-09-10T04:53:54.145Z,99.48
2022-09-10T04:56:26.410Z,99.44
2022-09-10T04:58:53.573Z,99.41
2022-09-10T05:01:20.604Z,99.36
2022-09-10T05:03:51.963Z,99.32
2022-09-10T05:06:20.336Z,99.09
2022-09-10T05:08:48.147Z,98.90
2022-09-10T05:11:15.304Z,98.63
2022-09-10T05:13:43.119Z,98.52
2022-09-10T05:16:11.822Z,98.49
2022-09-10T05:18:39.552Z,98.29
2022-09-10T05:21:08.018Z,98.25
2022-09-10T05:23:34.860Z,98.08
2022-09-10T05:26:02.246Z,98.04
2022-09-10T05:28:30.129Z,98.00
2022-09-10T05:30:57.005Z,97.99
2022-09-10T05:33:27.015Z,97.62
2022-09-10T05:35:54.632Z,97.81
2022-09-10T05:38:21.969Z,97.81
2022-09-10T05:40:50.371Z,97.73
2022-09-10T05:43:17.187Z,97.72
2022-09-10T05:45:45.413Z,97.82
2022-09-10T05:48:13.353Z,97.79
2022-09-10T05:50:41.137Z,97.97
2022-09-10T05:53:09.841Z,97.71
2022-09-10T05:55:37.906Z,98.09
2022-09-10T05:58:06.379Z,98.03
2022-09-10T06:00:36.591Z,97.92
2022-09-10T06:03:05.408Z,97.76
2022-09-10T06:05:40.269Z,97.75
2022-09-10T06:08:09.018Z,97.71
2022-09-10T06:10:39.583Z,97.50
2022-09-10T06:13:06.901Z,96.89
2022-09-10T06:15:36.003Z,97.05
2022-09-10T06:18:04.129Z,96.78
2022-09-10T06:20:32.135Z,97.04
2022-09-10T06:23:00.183Z,96.88
2022-09-10T06:25:28.539Z,97.08
2022-09-10T06:27:56.502Z,96.92
2022-09-10T06:30:23.755Z,96.93
2022-09-10T06:32:50.590Z,96.97
2022-09-10T06:35:18.113Z,97.11
2022-09-10T06:37:45.263Z,96.97
2022-09-10T06:40:14.021Z,97.13
2022-09-10T06:42:42.740Z,97.21
2022-09-10T06:45:13.243Z,97.06
2022-09-10T06:48:37.701Z,96.78
2022-09-10T06:51:02.780Z,96.97
2022-09-10T06:53:34.769Z,96.67
2022-09-10T06:56:05.903Z,96.26
2022-09-10T06:58:35.374Z,95.63
2022-09-10T07:01:14.470Z,95.61
2022-09-10T07:03:45.697Z,95.45
2022-09-10T07:06:17.435Z,95.31
2022-09-10T07:08:47.759Z,95.31
2022-09-10T07:11:15.944Z,94.90
2022-09-10T07:13:44.366Z,94.67
2022-09-10T07:16:11.791Z,94.00
2022-09-10T07:18:38.837Z,93.78
2022-09-10T07:21:08.366Z,93.99
2022-09-10T07:23:35.750Z,93.91
2022-09-10T07:26:05.349Z,93.92
2022-09-10T07:28:40.431Z,93.84
2022-09-10T07:31:34.724Z,93.73
2022-09-10T07:34:08.651Z,93.48
2022-09-10T07:36:36.379Z,93.79
2022-09-10T07:39:04.898Z,93.48
2022-09-10T07:41:37.693Z,93.58
2022-09-10T07:44:07.683Z,93.48
2022-09-10T07:46:41.285Z,93.50
2022-09-10T07:49:11.341Z,93.45
2022-09-10T07:51:40.182Z,93.34
2022-09-10T07:54:07.963Z,93.67
2022-09-10T07:56:45.601Z,93.40
2022-09-10T07:59:15.187Z,93.65
2022-09-10T08:01:47.910Z,93.43
2022-09-10T08:04:17.055Z,93.46
2022-09-10T08:06:44.135Z,93.38
2022-09-10T08:09:11.375Z,93.65
2022-09-10T08:11:46.052Z,93.23
2022-09-10T08:14:16.200Z,92.98
2022-09-10T08:16:47.354Z,93.35
2022-09-10T08:19:15.899Z,93.29
2022-09-10T08:21:44.610Z,93.24
2022-09-10T08:24:13.377Z,93.27
2022-09-10T08:26:43.154Z,93.39
2022-09-10T08:29:10.021Z,93.09
2022-09-10T08:31:37.141Z,92.67
2022-09-10T08:34:15.016Z,92.34
2022-09-10T08:36:47.081Z,91.93
2022-09-10T08:39:14.329Z,92.08
2022-09-10T08:41:53.738Z,92.10
2022-09-10T08:44:34.701Z,92.07
2022-09-10T08:47:15.854Z,92.06
2022-09-10T08:49:53.710Z,91.94
2022-09-10T08:52:39.159Z,91.33
2022-09-10T08:55:25.276Z,91.41
2022-09-10T08:58:15.128Z,90.91
2022-09-10T09:00:46.351Z,91.47
2022-09-10T09:03:31.866Z,90.95
2022-09-10T09:06:05.749Z,91.01
2022-09-10T09:08:49.039Z,90.55
2022-09-10T09:11:27.839Z,90.70
2022-09-10T09:14:22.648Z,90.60
2022-09-10T09:17:17.290Z,89.30
2022-09-10T09:19:51.295Z,89.60
2022-09-10T09:22:25.183Z,89.64
2022-09-10T09:24:57.892Z,90.15
2022-09-10T09:27:33.965Z,90.02
2022-09-10T09:30:03.986Z,90.51
2022-09-10T09:32:40.394Z,90.61
2022-09-10T09:35:37.294Z,90.47
2022-09-10T09:38:30.847Z,90.58
2022-09-10T09:41:26.624Z,90.43
2022-09-10T09:44:00.209Z,89.85
2022-09-10T09:46:27.190Z,89.68
2022-09-10T09:49:00.182Z,89.57
2022-09-10T09:51:35.436Z,89.58
2022-09-10T09:54:46.624Z,89.42
2022-09-10T09:56:59.793Z,89.86
2022-09-10T09:59:35.006Z,89.22
2022-09-10T10:02:21.938Z,89.30
2022-09-10T10:04:55.110Z,88.17
2022-09-10T10:07:27.160Z,88.12
2022-09-10T10:09:54.473Z,88.35
2022-09-10T10:12:22.488Z,88.09
2022-09-10T10:14:49.938Z,88.40
2022-09-10T10:17:37.658Z,88.50
2022-09-10T10:20:13.277Z,88.17
2022-09-10T10:22:43.120Z,87.83
2022-09-10T10:25:28.412Z,87.37
2022-09-10T10:27:56.290Z,87.34
2022-09-10T10:30:25.009Z,86.76
2022-09-10T10:33:00.055Z,86.55
2022-09-10T10:35:33.240Z,85.64
2022-09-10T10:38:30.269Z,85.56
2022-09-10T10:41:30.470Z,86.25
2022-09-10T10:44:17.924Z,86.50
2022-09-10T10:46:59.758Z,86.88
2022-09-10T10:49:43.847Z,87.24
2022-09-10T10:52:24.544Z,86.78
2022-09-10T10:54:57.402Z,86.85
2022-09-10T10:57:38.300Z,86.90
2022-09-10T11:00:09.779Z,86.79
2022-09-10T11:02:56.072Z,86.58
2022-09-10T11:05:31.284Z,86.61
2022-09-10T11:08:27.191Z,86.92
2022-09-10T11:11:02.638Z,87.39
2022-09-10T11:14:02.740Z,87.69
2022-09-10T11:16:40.492Z,87.59
2022-09-10T11:19:22.722Z,87.69
2022-09-10T11:22:03.283Z,87.83
2022-09-10T11:24:39.926Z,88.42
2022-09-10T11:27:13.286Z,88.34
2022-09-10T11:29:47.330Z,88.34
2022-09-10T11:32:17.174Z,88.50
2022-09-10T11:35:07.362Z,88.69
2022-09-10T11:38:01.634Z,88.66
2022-09-10T11:40:37.567Z,88.72
2022-09-10T11:43:11.188Z,88.23
2022-09-10T11:45:46.492Z,87.56
2022-09-10T11:48:27.498Z,87.32
2022-09-10T11:51:02.208Z,87.64
2022-09-10T11:53:30.458Z,88.00
2022-09-10T11:56:36.300Z,87.90
2022-09-10T11:59:11.396Z,87.80
2022-09-10T12:01:56.975Z,87.77
2022-09-10T12:04:47.738Z,87.67
2022-09-10T12:07:23.058Z,87.72
2022-09-10T12:10:05.832Z,87.35
2022-09-10T12:12:43.578Z,87.54
2022-09-10T12:15:20.139Z,87.40
2022-09-10T12:17:54.991Z,87.53
2022-09-10T12:20:31.144Z,87.49
2022-09-10T12:22:59.112Z,87.36
2022-09-10T12:25:33.850Z,87.38
2022-09-10T12:28:05.509Z,87.51
2022-09-10T12:30:35.163Z,87.48
2022-09-10T12:33:24.756Z,87.17
2022-09-10T12:35:52.291Z,87.25
2022-09-10T12:38:44.400Z,87.54
2022-09-10T12:41:15.783Z,87.57
2022-09-10T12:43:43.462Z,87.57
2022-09-10T12:46:10.324Z,87.59
2022-09-10T12:48:42.924Z,87.35
2022-09-10T12:51:19.278Z,87.19
2022-09-10T12:54:24.176Z,86.63
2022-09-10T12:57:35.730Z,86.54
2022-09-10T13:00:24.319Z,86.44
2022-09-10T13:03:11.453Z,85.75
2022-09-10T13:05:44.450Z,85.67
2022-09-10T13:08:13.629Z,86.01
2022-09-10T13:10:43.355Z,86.08
2022-09-10T13:13:34.217Z,85.95
2022-09-10T13:16:03.407Z,86.19
2022-09-10T13:18:31.154Z,86.69
2022-09-10T13:20:59.187Z,86.33
2022-09-10T13:23:47.636Z,86.33
2022-09-10T13:26:31.138Z,85.84
2022-09-10T13:29:04.863Z,85.99
2022-09-10T13:31:38.715Z,85.95
2022-09-10T13:34:14.567Z,86.04
2022-09-10T13:37:31.928Z,86.29
2022-09-10T13:40:31.259Z,86.47
2022-09-10T13:43:35.042Z,86.94
2022-09-10T13:46:06.892Z,86.97
2022-09-10T13:48:52.250Z,86.54
2022-09-10T13:51:34.879Z,86.37
2022-09-10T13:54:08.462Z,86.36
2022-09-10T13:56:36.427Z,86.22
2022-09-10T13:59:05.123Z,85.98
2022-09-10T14:01:53.289Z,86.11
2022-09-10T14:04:28.527Z,86.19
2022-09-10T14:07:06.950Z,86.08
2022-09-10T14:09:34.781Z,85.93
2022-09-10T14:12:06.491Z,85.92
2022-09-10T14:14:36.365Z,86.00
2022-09-10T14:17:09.330Z,86.11
2022-09-10T14:19:49.343Z,86.24
2022-09-10T14:22:22.461Z,86.28
2022-09-10T14:25:02.791Z,86.24
2022-09-10T14:27:39.050Z,85.95
2022-09-10T14:30:18.371Z,86.00
2022-09-10T14:32:48.465Z,85.62
2022-09-10T14:35:43.184Z,85.27
2022-09-10T14:38:36.177Z,85.52
2022-09-10T14:41:11.050Z,85.47
2022-09-10T14:43:40.617Z,85.45
2022-09-10T14:46:10.048Z,85.00
2022-09-10T14:48:39.081Z,85.48
2022-09-10T14:51:12.388Z,85.78
2022-09-10T14:53:40.871Z,85.89
2022-09-10T14:56:26.632Z,85.83
2022-09-10T14:58:59.967Z,86.15
2022-09-10T15:01:29.246Z,86.26
2022-09-10T15:03:57.441Z,86.59
2022-09-10T15:06:26.677Z,87.01
2022-09-10T15:08:56.244Z,87.21
2022-09-10T15:11:26.275Z,87.57
2022-09-10T15:13:56.080Z,87.98
2022-09-10T15:16:23.508Z,88.26
2022-09-10T15:18:50.369Z,88.60
2022-09-10T15:21:17.239Z,88.42
2022-09-10T15:23:44.516Z,88.51
2022-09-10T15:26:14.173Z,88.65
2022-09-10T15:28:41.347Z,88.67
2022-09-10T15:31:08.996Z,88.72
2022-09-10T15:33:36.327Z,88.99
2022-09-10T15:36:03.890Z,89.03
2022-09-10T15:38:31.537Z,89.15
2022-09-10T15:41:13.760Z,89.27
2022-09-10T15:43:43.185Z,88.89
2022-09-10T15:46:12.391Z,88.84
2022-09-10T15:48:39.741Z,88.61
2022-09-10T15:51:11.151Z,88.76
2022-09-10T15:53:39.500Z,88.86
2022-09-10T15:56:07.742Z,89.00
2022-09-10T15:58:35.753Z,88.96
2022-09-10T16:01:03.954Z,88.84
2022-09-10T16:03:32.032Z,88.88
2022-09-10T16:06:04.750Z,88.67
2022-09-10T16:08:32.178Z,88.78
2022-09-10T16:10:59.754Z,88.72
2022-09-10T16:13:26.827Z,88.84
2022-09-10T16:16:02.787Z,88.87
2022-09-10T16:18:32.323Z,89.46
2022-09-10T16:21:11.376Z,89.75
2022-09-10T16:23:40.096Z,90.09
2022-09-10T16:26:08.228Z,90.08
2022-09-10T16:28:35.635Z,90.23
2022-09-10T16:31:14.284Z,90.50
2022-09-10T16:33:41.457Z,90.56
2022-09-10T16:36:09.383Z,90.83
2022-09-10T16:38:37.253Z,91.08
2022-09-10T16:41:06.498Z,91.17
2022-09-10T16:43:35.706Z,91.38
2022-09-10T16:46:04.216Z,91.37
2022-09-10T16:48:32.979Z,91.63
2022-09-10T16:51:09.762Z,91.52
2022-09-10T16:53:38.741Z,91.51
2022-09-10T16:56:08.800Z,91.71
2022-09-10T16:58:36.888Z,91.87
2022-09-10T17:01:06.100Z,91.84
2022-09-10T17:03:33.300Z,91.87
2022-09-10T17:06:00.248Z,91.73
2022-09-10T17:08:31.927Z,91.89
2022-09-10T17:10:59.470Z,91.87
2022-09-10T17:13:26.295Z,91.97
2022-09-10T17:16:32.806Z,92.13
2022-09-10T17:19:02.997Z,92.26
2022-09-10T17:21:32.046Z,92.14
2022-09-10T17:24:00.004Z,92.14
2022-09-10T17:26:27.132Z,92.37
2022-09-10T17:28:55.738Z,92.55
2022-09-10T17:31:23.529Z,92.50
2022-09-10T17:33:51.191Z,92.40
2022-09-10T17:36:18.832Z,92.31
2022-09-10T17:38:46.186Z,92.61
2022-09-10T17:41:14.583Z,92.61
2022-09-10T17:43:43.255Z,92.72
2022-09-10T17:46:14.887Z,92.67
2022-09-10T17:48:45.788Z,92.65
2022-09-10T17:51:14.935Z,92.70
2022-09-10T17:53:42.147Z,92.40
2022-09-10T17:56:11.494Z,92.61
2022-09-10T17:58:39.123Z,92.50
2022-09-10T18:01:09.322Z,92.20
2022-09-10T18:03:36.758Z,92.31
2022-09-10T18:06:06.184Z,92.37
2022-09-10T18:08:33.379Z,92.02
2022-09-10T18:11:14.614Z,91.77
2022-09-10T18:13:41.460Z,91.87
2022-09-10T18:16:12.413Z,91.87
2022-09-10T18:18:39.535Z,92.00
2022-09-10T18:21:21.584Z,91.87
2022-09-10T18:23:56.825Z,91.73
2022-09-10T18:26:26.049Z,91.57
2022-09-10T18:28:59.486Z,91.16
2022-09-10T18:31:32.989Z,91.44
2022-09-10T18:34:01.336Z,91.41
2022-09-10T18:36:28.830Z,91.63
2022-09-10T18:38:55.663Z,91.52
2022-09-10T18:41:24.735Z,91.58
2022-09-10T18:43:53.755Z,91.64
2022-09-10T18:46:21.486Z,91.67
2022-09-10T18:48:48.582Z,91.32
2022-09-10T18:51:18.791Z,91.23
2022-09-10T18:53:46.807Z,91.38
2022-09-10T18:56:19.621Z,91.37
2022-09-10T18:58:51.618Z,91.37
2022-09-10T19:01:19.931Z,91.00
2022-09-10T19:03:48.678Z,90.83
2022-09-10T19:06:20.785Z,90.79
2022-09-10T19:08:53.326Z,90.74
2022-09-10T19:11:22.103Z,90.84
2022-09-10T19:13:54.377Z,90.43
2022-09-10T19:16:27.651Z,90.61
2022-09-10T19:18:57.075Z,90.67
2022-09-10T19:21:26.460Z,90.67
2022-09-10T19:23:59.549Z,90.58
2022-09-10T19:26:30.473Z,90.78
2022-09-10T19:28:58.702Z,90.93
2022-09-10T19:31:26.899Z,90.86
2022-09-10T19:33:55.890Z,90.63
2022-09-10T19:36:23.304Z,90.73
2022-09-10T19:38:50.284Z,90.91
2022-09-10T19:41:18.958Z,91.00
2022-09-10T19:43:47.899Z,90.97
2022-09-10T19:46:16.766Z,91.00
2022-09-10T19:48:44.093Z,90.99
2022-09-10T19:51:16.677Z,90.97
2022-09-10T19:53:43.792Z,91.16
2022-09-10T19:56:20.245Z,91.22
2022-09-10T19:58:49.912Z,91.36
2022-09-10T20:01:18.511Z,91.40
2022-09-10T20:03:46.220Z,91.36
2022-09-10T20:06:15.180Z,91.52
2022-09-10T20:08:42.551Z,91.39
2022-09-10T20:11:15.375Z,91.54
2022-09-10T20:13:42.474Z,91.67
2022-09-10T20:16:10.522Z,91.55
2022-09-10T20:18:37.868Z,91.79
2022-09-10T20:21:31.626Z,91.94
2022-09-10T20:23:58.974Z,91.74
2022-09-10T20:26:31.629Z,91.78
2022-09-10T20:29:06.882Z,91.79
2022-09-10T20:31:36.103Z,91.60
2022-09-10T20:34:05.789Z,91.58
2022-09-10T20:36:35.568Z,91.60
2022-09-10T20:39:03.167Z,91.75
2022-09-10T20:41:30.708Z,91.52
2022-09-10T20:43:59.663Z,91.67
2022-09-10T20:46:29.827Z,91.59
2022-09-10T20:49:03.773Z,91.57
2022-09-10T20:51:34.218Z,91.65
2022-09-10T20:54:02.048Z,91.87
2022-09-10T20:56:29.393Z,91.90
2022-09-10T20:58:56.849Z,91.98
2022-09-10T21:01:26.118Z,91.97
2022-09-10T21:03:56.121Z,91.92
2022-09-10T21:06:28.445Z,92.14
2022-09-10T21:08:56.085Z,92.26
2022-09-10T21:11:25.174Z,92.53
2022-09-10T21:13:58.032Z,92.72
2022-09-10T21:16:30.220Z,92.77
2022-09-10T21:19:02.192Z,92.89
2022-09-10T21:21:31.649Z,93.10
2022-09-10T21:24:01.466Z,93.17
2022-09-10T21:26:30.763Z,93.35
2022-09-10T21:29:00.367Z,93.87
2022-09-10T21:31:28.512Z,94.23
2022-09-10T21:34:01.971Z,94.66
2022-09-10T21:36:31.315Z,95.04
2022-09-10T21:39:00.315Z,95.28
2022-09-10T21:41:32.518Z,95.28
2022-09-10T21:44:01.602Z,95.61
2022-09-10T21:46:29.613Z,95.79
2022-09-10T21:48:57.052Z,95.88
2022-09-10T21:51:24.709Z,95.96
2022-09-10T21:53:54.986Z,96.14
2022-09-10T21:56:23.685Z,96.42
2022-09-10T21:58:51.048Z,96.82
2022-09-10T22:01:20.828Z,97.13
2022-09-10T22:03:48.817Z,97.34
2022-09-10T22:06:19.219Z,97.66
2022-09-10T22:08:48.287Z,98.06
2022-09-10T22:11:24.276Z,98.09
2022-09-10T22:13:54.132Z,98.00
2022-09-10T22:16:22.724Z,97.92
2022-09-10T22:18:50.291Z,98.08
2022-09-10T22:21:18.196Z,98.40
2022-09-10T22:23:45.137Z,98.48
2022-09-10T22:26:14.844Z,98.32
2022-09-10T22:28:43.018Z,98.31
2022-09-10T22:31:19.184Z,98.11
2022-09-10T22:33:51.679Z,98.11
2022-09-10T22:36:21.382Z,98.31
2022-09-10T22:38:53.827Z,98.49
2022-09-10T22:41:21.538Z,98.35
2022-09-10T22:43:49.456Z,98.19
2022-09-10T22:46:17.243Z,98.14
2022-09-10T22:48:45.493Z,98.23
2022-09-10T22:51:27.752Z,98.25
2022-09-10T22:53:55.933Z,97.73
2022-09-10T22:56:26.238Z,97.89
2022-09-10T22:58:55.625Z,97.97
2022-09-10T23:01:25.739Z,97.88
2022-09-10T23:03:53.066Z,97.83
2022-09-10T23:06:22.559Z,97.97
2022-09-10T23:08:52.383Z,98.15
2022-09-10T23:11:28.004Z,98.38
2022-09-10T23:13:57.722Z,98.49
2022-09-10T23:16:31.875Z,98.35
2022-09-10T23:19:01.119Z,98.52
2022-09-10T23:21:29.792Z,98.41
2022-09-10T23:23:59.510Z,98.52
2022-09-10T23:26:27.435Z,98.81
2022-09-10T23:28:55.649Z,99.12
2022-09-10T23:31:27.515Z,98.79
2022-09-10T23:34:03.653Z,98.65
2022-09-10T23:36:32.979Z,98.86
2022-09-10T23:39:01.298Z,98.98
2022-09-10T23:41:29.922Z,99.47
2022-09-10T23:43:57.300Z,99.71
2022-09-10T23:46:25.199Z,99.68
2022-09-10T23:48:52.241Z,99.98
2022-09-10T23:51:20.672Z,100.00
2022-09-10T23:53:48.603Z,100.00
2022-09-10T23:56:18.065Z,100.00
2022-09-10T23:58:45.494Z,100.00
